Time;durP1;ratioP1;P1;durP2;ratioP2;P2;SDS_P1;SDS_P2;PMS_P1;PMS_P2;Temp;Humidity;BMP_temperature;BMP_pressure;BME280_temperature;BME280_humidity;BME280_pressure;Samples;Min_cycle;Max_cycle;Signal;HPM_P1;HPM_P2
2022/07/05 00:00:08;;;;;;;4.70;4.20;;;;;;;20.05;60.96;96718.04;106447;1284;126625;-82
2022/07/05 00:03:00;;;;;;;4.90;4.50;;;;;;;20.21;61.14;96719.06;106315;1284;122392;-81
2022/07/05 00:05:31;;;;;;;6.00;4.70;;;;;;;20.23;61.08;96718.42;106429;1282;130028;-82
2022/07/05 00:08:03;;;;;;;5.50;4.50;;;;;;;20.11;61.00;96716.21;106446;1284;89644;-82
2022/07/05 00:10:34;;;;;;;4.40;4.00;;;;;;;20.08;61.12;96717.65;106501;1284;78352;-82
2022/07/05 00:13:09;;;;;;;5.90;4.40;;;;;;;20.07;61.17;96714.56;106524;1283;90948;-81
2022/07/05 00:15:41;;;;;;;6.40;4.80;;;;;;;20.10;61.63;96714.48;104867;1284;1981995;-82
2022/07/05 00:18:12;;;;;;;4.40;3.80;;;;;;;20.03;61.90;96708.89;106190;1284;121068;-82
2022/07/05 00:20:43;;;;;;;4.70;3.80;;;;;;;20.06;61.79;96707.83;106344;1284;105674;-82
2022/07/05 00:23:17;;;;;;;6.20;4.80;;;;;;;20.09;62.14;96710.29;106365;1284;92476;-81
2022/07/05 00:25:48;;;;;;;5.40;4.20;;;;;;;20.13;62.29;96714.30;106408;1284;106340;-82
2022/07/05 00:28:19;;;;;;;4.70;4.00;;;;;;;20.14;62.11;96712.48;106337;1284;121541;-82
2022/07/05 00:30:53;;;;;;;5.00;4.00;;;;;;;20.14;62.09;96714.77;106421;1284;99733;-81
2022/07/05 00:33:24;;;;;;;4.80;4.30;;;;;;;20.11;61.87;96713.30;106431;1284;93257;-81
2022/07/05 00:35:56;;;;;;;4.50;4.00;;;;;;;20.14;61.72;96712.16;106642;1284;97928;-81
2022/07/05 00:38:27;;;;;;;4.20;3.80;;;;;;;20.23;61.48;96709.80;106510;1284;112111;-81
2022/07/05 00:40:58;;;;;;;5.40;4.00;;;;;;;20.30;61.46;96704.35;106772;1282;90151;-80
2022/07/05 00:43:30;;;;;;;5.10;4.10;;;;;;;20.32;61.36;96702.17;106480;1282;109137;-78
2022/07/05 00:46:01;;;;;;;5.10;4.60;;;;;;;20.33;61.46;96707.28;106529;1284;110886;-80
2022/07/05 00:48:32;;;;;;;5.60;4.10;;;;;;;20.32;61.25;96716.92;106536;1284;95688;-81
2022/07/05 00:51:03;;;;;;;5.70;4.30;;;;;;;20.26;61.20;96722.14;106428;1283;97243;-81
2022/07/05 00:53:34;;;;;;;5.00;3.90;;;;;;;20.16;61.36;96725.84;106579;1283;49269;-81
2022/07/05 00:56:06;;;;;;;5.10;4.10;;;;;;;20.06;61.46;96726.45;106470;1284;72871;-81
2022/07/05 00:58:37;;;;;;;5.80;4.00;;;;;;;20.01;61.90;96727.07;106533;1284;32779;-82
2022/07/05 01:01:10;;;;;;;5.40;3.40;;;;;;;19.95;62.48;96726.70;106211;1284;123255;-82
2022/07/05 01:03:41;;;;;;;5.70;3.60;;;;;;;19.93;62.68;96725.18;106318;1283;84937;-83
2022/07/05 01:06:14;;;;;;;4.20;3.50;;;;;;;19.95;62.77;96726.61;106438;1284;85252;-83
2022/07/05 01:08:47;;;;;;;4.90;4.00;;;;;;;19.94;62.63;96727.42;106446;1284;37460;-83
2022/07/05 01:11:18;;;;;;;5.40;4.30;;;;;;;19.95;62.67;96727.98;106399;1284;30353;-82
2022/07/05 01:13:49;;;;;;;6.10;4.10;;;;;;;19.98;62.62;96726.71;106273;1284;84852;-82
2022/07/05 01:16:21;;;;;;;6.20;4.20;;;;;;;20.10;62.95;96727.27;106539;1284;33959;-82
2022/07/05 01:18:52;;;;;;;4.70;4.20;;;;;;;20.26;62.74;96730.28;106550;1284;37955;-82
2022/07/05 01:21:26;;;;;;;5.30;4.50;;;;;;;20.28;62.32;96727.02;106400;1284;32145;-82
2022/07/05 01:23:58;;;;;;;5.60;4.60;;;;;;;20.26;62.46;96731.73;106626;1284;32673;-82
2022/07/05 01:26:32;;;;;;;6.70;4.90;;;;;;;20.30;62.54;96732.86;106491;1284;73156;-83
2022/07/05 01:29:03;;;;;;;6.50;4.80;;;;;;;20.32;62.40;96729.54;106365;1284;87423;-81
2022/07/05 01:31:34;;;;;;;7.70;4.90;;;;;;;20.28;62.54;96738.21;106424;1284;112279;-82
2022/07/05 01:34:06;;;;;;;6.50;4.40;;;;;;;20.28;62.67;96743.36;106191;1284;101994;-82
2022/07/05 01:36:38;;;;;;;6.40;4.90;;;;;;;20.32;62.74;96741.70;106332;1284;143041;-83
2022/07/05 01:39:10;;;;;;;5.60;4.20;;;;;;;20.40;63.01;96748.66;106051;1284;229291;-82
2022/07/05 01:41:42;;;;;;;7.30;4.80;;;;;;;20.44;62.99;96748.12;106213;1284;147322;-82
2022/07/05 01:44:14;;;;;;;5.70;5.10;;;;;;;20.49;63.11;96747.33;106205;1284;107802;-83
2022/07/05 01:46:45;;;;;;;7.20;5.10;;;;;;;20.48;62.93;96750.83;106277;1283;107993;-83
2022/07/05 01:49:18;;;;;;;7.60;5.30;;;;;;;20.42;62.78;96754.95;106073;1284;90475;-78
2022/07/05 01:51:52;;;;;;;8.50;5.50;;;;;;;20.26;62.85;96749.44;106348;1283;32207;-77
2022/07/05 01:54:23;;;;;;;8.80;5.90;;;;;;;20.19;62.99;96757.05;106461;1284;43010;-76
2022/07/05 01:56:55;;;;;;;8.50;5.90;;;;;;;20.12;63.25;96757.77;106280;1284;138220;-82
2022/07/05 01:59:26;;;;;;;8.30;6.10;;;;;;;20.17;63.40;96754.46;106474;1284;102542;-82
2022/07/05 02:01:58;;;;;;;7.20;5.90;;;;;;;20.25;63.38;96760.71;106531;1284;89494;-82
2022/07/05 02:04:30;;;;;;;7.70;5.30;;;;;;;20.32;63.38;96766.63;106406;1284;97161;-82
2022/07/05 02:07:04;;;;;;;6.20;4.70;;;;;;;20.38;63.33;96767.52;106311;1284;108170;-81
2022/07/05 02:09:36;;;;;;;6.80;5.20;;;;;;;20.45;63.42;96772.22;106365;1284;119534;-82
2022/07/05 02:12:07;;;;;;;6.50;5.00;;;;;;;20.50;63.49;96770.81;106423;1284;82749;-82
2022/07/05 02:14:39;;;;;;;8.20;5.50;;;;;;;20.55;63.28;96773.52;106339;1284;95710;-82
2022/07/05 02:17:10;;;;;;;6.20;5.40;;;;;;;20.56;63.18;96776.41;106214;1284;93744;-82
2022/07/05 02:19:41;;;;;;;9.30;5.40;;;;;;;20.50;63.15;96774.77;106321;1284;105435;-82
2022/07/05 02:22:12;;;;;;;7.40;5.20;;;;;;;20.55;63.21;96772.07;106489;1284;97355;-82
2022/07/05 02:24:43;;;;;;;7.70;6.20;;;;;;;20.51;62.97;96772.39;106419;1284;86086;-81
2022/07/05 02:27:15;;;;;;;8.60;5.60;;;;;;;20.46;63.06;96772.40;106306;1284;105934;-82
2022/07/05 02:29:47;;;;;;;9.70;6.30;;;;;;;20.49;63.17;96777.70;106293;1284;126948;-82
2022/07/05 02:32:18;;;;;;;8.50;5.70;;;;;;;20.52;63.18;96778.27;106384;1284;88804;-82
2022/07/05 02:34:49;;;;;;;8.10;6.00;;;;;;;20.52;63.12;96773.58;106360;1282;99933;-82
2022/07/05 02:37:20;;;;;;;6.20;4.90;;;;;;;20.54;63.28;96778.17;106443;1284;93055;-82
2022/07/05 02:39:51;;;;;;;5.80;4.60;;;;;;;20.56;63.49;96777.56;106232;1284;153347;-81
2022/07/05 02:42:22;;;;;;;6.50;4.90;;;;;;;20.53;63.67;96774.98;106453;1284;95416;-81
2022/07/05 02:44:54;;;;;;;8.20;5.20;;;;;;;20.54;63.74;96766.35;106296;1283;84554;-81
2022/07/05 02:47:25;;;;;;;7.00;5.70;;;;;;;20.60;63.95;96765.00;106543;1284;101707;-82
2022/07/05 02:49:57;;;;;;;6.50;5.30;;;;;;;20.63;64.10;96763.84;106533;1284;115832;-82
2022/07/05 02:52:28;;;;;;;5.90;5.10;;;;;;;20.65;64.64;96763.59;106571;1284;101003;-81
2022/07/05 02:55:00;;;;;;;8.40;4.80;;;;;;;20.58;64.69;96769.77;106482;1284;99168;-81
2022/07/05 02:57:31;;;;;;;7.00;5.60;;;;;;;20.39;65.29;96775.02;106262;1284;154524;-81
2022/07/05 03:00:02;;;;;;;6.90;5.10;;;;;;;20.13;66.10;96783.55;106150;1283;106330;-81
2022/07/05 03:02:33;;;;;;;8.00;5.40;;;;;;;20.03;66.35;96787.79;106339;1284;107643;-81
2022/07/05 03:05:05;;;;;;;5.70;5.10;;;;;;;20.05;66.60;96780.99;106465;1284;87754;-82
2022/07/05 03:07:36;;;;;;;6.20;5.10;;;;;;;20.11;66.43;96779.26;106558;1281;85768;-82
2022/07/05 03:10:08;;;;;;;8.10;5.20;;;;;;;20.20;66.02;96786.25;106503;1284;96614;-81
2022/07/05 03:12:40;;;;;;;7.30;4.70;;;;;;;20.28;66.11;96785.66;106344;1284;95918;-82
2022/07/05 03:15:13;;;;;;;7.40;4.80;;;;;;;20.36;66.29;96793.27;106408;1284;144521;-82
2022/07/05 03:17:44;;;;;;;5.80;3.90;;;;;;;20.38;66.46;96791.98;106443;1284;104177;-82
2022/07/05 03:20:15;;;;;;;6.00;4.80;;;;;;;20.37;66.78;96792.87;106330;1284;132454;-82
2022/07/05 03:22:49;;;;;;;5.10;4.60;;;;;;;20.29;66.84;96795.46;106409;1284;101118;-82
2022/07/05 03:25:21;;;;;;;6.40;5.00;;;;;;;20.21;67.02;96798.21;106195;1284;162831;-80
2022/07/05 03:27:53;;;;;;;5.10;4.40;;;;;;;20.19;67.17;96800.30;106014;1284;233320;-80
2022/07/05 03:30:24;;;;;;;6.30;4.40;;;;;;;20.14;67.22;96799.29;106152;1281;174318;-80
2022/07/05 03:33:00;;;;;;;5.60;4.40;;;;;;;20.15;67.44;96797.41;106245;1284;136198;-80
2022/07/05 03:35:31;;;;;;;4.50;3.80;;;;;;;20.21;67.55;96792.13;105968;1284;160170;-79
2022/07/05 03:38:03;;;;;;;5.60;4.40;;;;;;;20.24;67.58;96790.98;103982;1284;2300443;-80
2022/07/05 03:40:34;;;;;;;4.90;4.20;;;;;;;20.35;67.71;96794.42;105602;1282;198919;-80
2022/07/05 03:43:06;;;;;;;6.10;4.90;;;;;;;20.38;67.62;96790.48;102552;1284;2768916;-80
2022/07/05 03:45:38;;;;;;;8.80;5.30;;;;;;;20.32;68.08;96789.02;104636;1284;1797071;-81
2022/07/05 03:48:09;;;;;;;8.70;5.70;;;;;;;20.22;68.05;96783.77;104841;1283;1875083;-80
2022/07/05 03:50:43;;;;;;;6.80;4.90;;;;;;;20.20;68.46;96782.39;104847;1284;1933411;-80
2022/07/05 03:53:15;;;;;;;8.70;5.00;;;;;;;20.23;68.63;96781.87;106302;1284;123386;-81
2022/07/05 03:55:46;;;;;;;7.00;5.00;;;;;;;20.30;68.26;96779.33;106226;1283;120048;-81
2022/07/05 03:58:17;;;;;;;7.50;4.80;;;;;;;20.41;68.33;96776.86;106191;1284;141831;-80
2022/07/05 04:00:48;;;;;;;7.50;4.70;;;;;;;20.48;68.40;96777.39;106322;1284;142056;-80
2022/07/05 04:03:20;;;;;;;5.90;4.90;;;;;;;20.61;68.46;96779.48;106037;1284;171602;-80
2022/07/05 04:05:51;;;;;;;6.20;5.40;;;;;;;20.69;68.10;96779.36;99701;1284;2171955;-80
2022/07/05 04:08:22;;;;;;;6.10;5.20;;;;;;;20.77;67.86;96784.43;105673;1284;194585;-80
2022/07/05 04:10:53;;;;;;;5.00;4.20;;;;;;;20.83;68.06;96790.85;105817;1284;162855;-80
2022/07/05 04:13:28;;;;;;;4.40;4.00;;;;;;;20.86;68.29;96792.23;105165;1284;1134602;-81
2022/07/05 04:15:59;;;;;;;6.00;4.50;;;;;;;20.88;68.11;96793.60;106258;1284;181416;-81
2022/07/05 04:18:30;;;;;;;8.60;4.30;;;;;;;20.94;68.18;96792.62;106537;1284;109273;-81
2022/07/05 04:21:02;;;;;;;5.10;4.40;;;;;;;20.94;67.70;96795.17;106373;1284;113684;-81
2022/07/05 04:23:33;;;;;;;5.40;4.10;;;;;;;20.93;67.21;96799.00;106161;1283;158207;-80
2022/07/05 04:26:07;;;;;;;6.10;4.40;;;;;;;20.96;66.98;96797.05;106354;1284;102024;-80
2022/07/05 04:28:39;;;;;;;5.50;4.10;;;;;;;20.96;67.00;96798.33;105228;1284;1610139;-80
2022/07/05 04:31:10;;;;;;;5.30;4.10;;;;;;;20.99;66.79;96801.27;106436;1284;104348;-80
2022/07/05 04:33:42;;;;;;;6.50;4.60;;;;;;;21.02;66.55;96803.12;106118;1283;189313;-81
2022/07/05 04:36:13;;;;;;;5.80;4.30;;;;;;;21.01;66.15;96803.64;103285;1284;2086304;-80
2022/07/05 04:38:48;;;;;;;4.20;3.70;;;;;;;21.04;66.79;96803.70;104968;1284;1290213;-80
2022/07/05 04:41:19;;;;;;;3.80;3.20;;;;;;;21.08;66.63;96799.05;104692;1283;1568640;-81
2022/07/05 04:43:51;;;;;;;4.60;3.60;;;;;;;21.09;65.45;96798.69;104553;1282;2037545;-81
2022/07/05 04:46:22;;;;;;;4.10;3.00;;;;;;;21.13;65.30;96796.96;106124;1284;143249;-81
2022/07/05 04:48:54;;;;;;;5.70;3.30;;;;;;;21.17;64.75;96801.16;106360;1283;140651;-81
2022/07/05 04:51:26;;;;;;;3.80;3.40;;;;;;;21.19;64.12;96801.97;106377;1284;117062;-80
2022/07/05 04:53:57;;;;;;;4.90;3.80;;;;;;;21.24;64.03;96804.83;106546;1284;37949;-80
2022/07/05 04:56:28;;;;;;;5.20;3.40;;;;;;;21.25;63.59;96804.23;106646;1282;52534;-80
2022/07/05 04:58:59;;;;;;;6.40;3.40;;;;;;;21.21;63.88;96806.73;106708;1281;39478;-80
2022/07/05 05:01:33;;;;;;;3.90;3.30;;;;;;;21.24;63.56;96805.66;103605;1284;1841472;-79
2022/07/05 05:04:04;;;;;;;4.40;3.70;;;;;;;21.22;63.52;96808.30;104449;1284;1690768;-80
2022/07/05 05:06:35;;;;;;;4.00;3.70;;;;;;;21.26;63.63;96811.56;105673;1283;210152;-80
2022/07/05 05:09:07;;;;;;;5.90;4.50;;;;;;;21.27;63.86;96810.81;104189;1284;2646425;-81
2022/07/05 05:11:38;;;;;;;5.20;4.60;;;;;;;21.30;64.06;96812.03;106140;1284;129135;-80
2022/07/05 05:14:10;;;;;;;4.50;4.10;;;;;;;21.30;64.22;96808.19;106142;1284;130581;-80
2022/07/05 05:16:41;;;;;;;5.00;4.50;;;;;;;21.26;64.26;96808.83;104628;1287;1530913;-80
2022/07/05 05:19:13;;;;;;;4.80;4.00;;;;;;;21.23;64.45;96807.02;106179;1284;167205;-81
2022/07/05 05:21:44;;;;;;;3.90;3.50;;;;;;;21.20;64.56;96806.02;103362;1284;2103200;-81
2022/07/05 05:24:15;;;;;;;4.30;3.70;;;;;;;21.15;64.86;96803.96;104974;1284;1840797;-80
2022/07/05 05:26:47;;;;;;;6.80;4.30;;;;;;;21.18;65.19;96810.35;106266;1284;97464;-80
2022/07/05 05:29:18;;;;;;;4.90;4.20;;;;;;;21.24;65.27;96812.70;106245;1284;131970;-80
2022/07/05 05:31:50;;;;;;;5.70;4.60;;;;;;;21.32;65.17;96813.93;106213;1284;124227;-80
2022/07/05 05:34:21;;;;;;;6.10;4.10;;;;;;;21.37;65.00;96814.13;106109;1284;128557;-80
2022/07/05 05:36:53;;;;;;;6.20;4.50;;;;;;;21.35;64.67;96818.03;106271;1284;132968;-80
2022/07/05 05:39:27;;;;;;;6.80;4.30;;;;;;;21.32;64.91;96816.48;106045;1284;115019;-80
2022/07/05 05:41:58;;;;;;;5.50;4.60;;;;;;;21.28;64.96;96817.76;106452;1283;135319;-80
2022/07/05 05:44:29;;;;;;;5.80;3.90;;;;;;;21.33;65.45;96822.67;106457;1284;127581;-80
2022/07/05 05:47:01;;;;;;;6.10;3.80;;;;;;;21.41;65.48;96823.58;105912;1284;186861;-80
2022/07/05 05:49:32;;;;;;;5.30;4.20;;;;;;;21.48;65.38;96828.17;106106;1284;156440;-80
2022/07/05 05:52:04;;;;;;;5.60;4.40;;;;;;;21.44;65.45;96834.30;106307;1284;106500;-80
2022/07/05 05:54:36;;;;;;;5.40;4.60;;;;;;;21.28;65.36;96831.92;106333;1284;118057;-80
2022/07/05 05:57:07;;;;;;;4.90;4.50;;;;;;;21.23;65.73;96837.91;106345;1284;105157;-81
2022/07/05 05:59:38;;;;;;;6.00;4.90;;;;;;;21.22;65.71;96834.17;106273;1284;144337;-80
2022/07/05 06:02:12;;;;;;;6.00;5.20;;;;;;;21.14;66.09;96840.11;105325;1284;1408981;-80
2022/07/05 06:04:44;;;;;;;6.50;5.20;;;;;;;21.11;66.40;96842.73;106301;1284;113371;-80
2022/07/05 06:07:15;;;;;;;5.70;5.10;;;;;;;21.15;66.64;96847.94;106298;1282;94350;-80
2022/07/05 06:09:47;;;;;;;5.60;5.00;;;;;;;21.13;66.81;96851.73;106199;1284;131982;-80
2022/07/05 06:12:18;;;;;;;8.90;5.00;;;;;;;21.04;67.21;96854.14;106352;1284;94165;-80
2022/07/05 06:14:49;;;;;;;5.60;5.10;;;;;;;20.87;67.53;96858.57;106297;1284;113530;-81
2022/07/05 06:17:21;;;;;;;6.80;5.10;;;;;;;20.72;68.44;96858.02;106062;1284;140033;-80
2022/07/05 06:19:52;;;;;;;5.40;4.90;;;;;;;20.58;68.60;96857.36;105941;1283;155359;-81
2022/07/05 06:22:24;;;;;;;5.70;4.80;;;;;;;20.48;68.79;96858.73;105882;1284;158922;-80
2022/07/05 06:24:55;;;;;;;5.00;4.50;;;;;;;20.50;69.24;96860.30;105794;1284;221896;-81
2022/07/05 06:27:26;;;;;;;6.00;5.00;;;;;;;20.60;70.04;96860.50;104593;1284;2068230;-80
2022/07/05 06:29:59;;;;;;;9.60;5.20;;;;;;;20.70;70.52;96864.67;106116;1284;171768;-81
2022/07/05 06:32:30;;;;;;;6.70;5.20;;;;;;;20.72;70.70;96864.97;106446;1284;122443;-80
2022/07/05 06:35:02;;;;;;;7.30;4.60;;;;;;;20.70;71.02;96866.23;106227;1284;106551;-79
2022/07/05 06:37:45;;;;;;;5.60;4.50;;;;;;;20.65;71.24;96866.75;106416;1284;102285;-79
2022/07/05 06:40:20;;;;;;;6.10;4.60;;;;;;;20.63;71.65;96870.05;106106;1284;132869;-80
2022/07/05 06:42:53;;;;;;;7.70;5.40;;;;;;;20.66;71.89;96870.30;106179;1284;113465;-79
2022/07/05 06:45:26;;;;;;;5.60;5.10;;;;;;;20.71;71.95;96871.17;106348;1282;122500;-80
2022/07/05 06:48:04;;;;;;;5.90;5.30;;;;;;;20.82;72.18;96874.43;106700;1283;93563;-79
2022/07/05 06:50:38;;;;;;;6.20;5.30;;;;;;;20.91;72.37;96885.32;106344;1284;124683;-78
2022/07/05 06:53:13;;;;;;;5.90;4.90;;;;;;;20.96;72.14;96881.79;106282;1284;119895;-79
2022/07/05 06:55:45;;;;;;;6.00;4.70;;;;;;;20.95;72.06;96879.52;106060;1284;108898;-76
2022/07/05 06:58:16;;;;;;;8.00;5.20;;;;;;;20.86;71.98;96879.40;106451;1284;73208;-74
2022/07/05 07:00:48;;;;;;;6.90;5.60;;;;;;;20.77;72.32;96878.74;106479;1284;45229;-75
2022/07/05 07:03:19;;;;;;;5.90;5.30;;;;;;;20.65;72.56;96882.82;106475;1284;30459;-76
2022/07/05 07:05:51;;;;;;;7.90;5.70;;;;;;;20.62;72.81;96887.50;106532;1284;39148;-76
2022/07/05 07:11:10;;;;;;;5.80;4.80;;;;;;;20.46;73.13;96897.14;106493;1284;34077;-76
2022/07/05 07:13:42;;;;;;;8.00;5.70;;;;;;;20.36;73.40;96900.48;106345;1287;30673;-76
2022/07/05 07:16:13;;;;;;;7.00;5.50;;;;;;;20.18;74.10;96904.34;106546;1284;38252;-76
2022/07/05 07:18:45;;;;;;;6.60;5.30;;;;;;;19.89;74.59;96904.42;106551;1284;30751;-76
2022/07/05 07:21:16;;;;;;;6.00;5.40;;;;;;;19.68;75.23;96903.63;106497;1284;39264;-76
2022/07/05 07:23:47;;;;;;;5.80;5.20;;;;;;;19.54;76.08;96905.52;106537;1284;39864;-77
2022/07/05 07:26:19;;;;;;;5.50;4.90;;;;;;;19.49;76.67;96904.17;106521;1284;29319;-76
2022/07/05 07:28:50;;;;;;;6.90;5.50;;;;;;;19.46;76.96;96906.45;106533;1284;33784;-76
2022/07/05 07:31:21;;;;;;;6.10;5.40;;;;;;;19.47;77.35;96907.99;106517;1284;52112;-75
2022/07/05 07:33:53;;;;;;;6.30;5.60;;;;;;;19.55;77.66;96904.30;106499;1284;29978;-76
2022/07/05 07:36:25;;;;;;;8.30;6.50;;;;;;;19.63;77.66;96906.06;106469;1284;62445;-76
2022/07/05 07:38:56;;;;;;;6.50;5.50;;;;;;;19.71;77.98;96910.98;106359;1284;31056;-76
2022/07/05 07:41:29;;;;;;;5.80;5.30;;;;;;;19.77;78.19;96913.66;106447;1284;29273;-76
2022/07/05 07:44:01;;;;;;;7.70;5.50;;;;;;;19.80;78.43;96913.92;106488;1284;31171;-76
2022/07/05 07:46:32;;;;;;;6.10;5.30;;;;;;;19.93;78.70;96908.91;106372;1284;30857;-75
2022/07/05 07:49:03;;;;;;;8.30;5.90;;;;;;;20.16;79.07;96902.09;106424;1284;26350;-74
2022/07/05 07:51:36;;;;;;;6.00;5.50;;;;;;;20.38;78.78;96895.24;106377;1284;33266;-75
2022/07/05 07:54:07;;;;;;;6.60;4.90;;;;;;;20.54;78.30;96903.64;106375;1284;40415;-76
2022/07/05 07:56:38;;;;;;;5.70;5.20;;;;;;;20.66;78.08;96904.25;106271;1284;35765;-75
2022/07/05 07:59:10;;;;;;;5.90;5.40;;;;;;;20.78;78.10;96904.16;106406;1284;29494;-75
2022/07/05 08:01:44;;;;;;;6.20;5.60;;;;;;;20.90;77.96;96896.23;106512;1284;31631;-75
2022/07/05 08:04:17;;;;;;;7.30;5.80;;;;;;;20.95;77.30;96900.39;106544;1284;48100;-75
2022/07/05 08:06:49;;;;;;;6.30;5.70;;;;;;;21.00;77.24;96904.03;106430;1284;35155;-75
2022/07/05 08:09:21;;;;;;;7.10;6.30;;;;;;;21.02;76.57;96904.06;106531;1284;31123;-75
2022/07/05 08:11:52;;;;;;;6.00;5.30;;;;;;;21.04;76.20;96902.60;106559;1284;27793;-75
2022/07/05 08:14:23;;;;;;;6.00;5.50;;;;;;;21.10;75.91;96903.18;106466;1284;26407;-75
2022/07/05 08:16:55;;;;;;;6.20;5.30;;;;;;;21.18;75.87;96904.41;106441;1284;31007;-75
2022/07/05 08:22:16;;;;;;;6.00;5.40;;;;;;;21.10;74.92;96898.85;106361;1284;33882;-75
2022/07/05 08:24:47;;;;;;;6.40;5.80;;;;;;;21.07;75.02;96895.11;106561;1284;31355;-75
2022/07/05 08:27:19;;;;;;;6.90;5.70;;;;;;;21.10;75.31;96894.59;106434;1283;31418;-75
2022/07/05 08:29:50;;;;;;;9.70;6.00;;;;;;;21.10;75.29;96900.61;106473;1284;33243;-75
2022/07/05 08:32:22;;;;;;;7.70;5.30;;;;;;;21.09;75.22;96898.88;106385;1284;34169;-76
2022/07/05 08:34:53;;;;;;;7.70;4.50;;;;;;;21.10;75.28;96895.84;106594;1281;27177;-75
2022/07/05 08:37:29;;;;;;;6.30;5.60;;;;;;;21.09;74.89;96902.14;106645;1284;38451;-75
2022/07/05 08:40:01;;;;;;;6.30;5.70;;;;;;;21.09;74.53;96903.13;106559;1282;39043;-75
2022/07/05 08:42:32;;;;;;;6.20;5.60;;;;;;;21.09;74.50;96902.44;106514;1284;37459;-75
2022/07/05 08:45:05;;;;;;;6.70;6.10;;;;;;;21.05;74.52;96902.02;106685;1284;27789;-75
2022/07/05 08:47:39;;;;;;;8.10;6.30;;;;;;;20.99;74.83;96898.05;106419;1284;33589;-75
2022/07/05 08:50:14;;;;;;;7.40;5.90;;;;;;;20.96;75.28;96890.70;106460;1284;30501;-75
2022/07/05 08:52:48;;;;;;;7.70;5.40;;;;;;;20.81;74.94;96884.95;106686;1284;35453;-75
2022/07/05 08:55:21;;;;;;;8.00;5.60;;;;;;;20.57;74.95;96883.49;106402;1284;31697;-75
2022/07/05 08:57:52;;;;;;;7.70;6.30;;;;;;;20.52;75.81;96882.39;106415;1284;31136;-75
2022/07/05 09:00:24;;;;;;;6.60;6.00;;;;;;;20.59;76.04;96880.01;106444;1284;31123;-75
2022/07/05 09:02:57;;;;;;;5.90;5.20;;;;;;;20.62;76.30;96878.20;106413;1284;32314;-75
2022/07/05 09:05:30;;;;;;;7.70;5.90;;;;;;;20.70;76.45;96883.63;106569;1284;31417;-75
2022/07/05 09:08:02;;;;;;;5.60;5.10;;;;;;;20.73;76.23;96888.18;106530;1284;28966;-75
2022/07/05 09:10:34;;;;;;;6.90;5.60;;;;;;;20.79;76.58;96881.32;106398;1284;43219;-75
2022/07/05 09:13:06;;;;;;;6.80;6.10;;;;;;;20.89;76.84;96879.58;106388;1284;28906;-75
2022/07/05 09:15:41;;;;;;;6.60;6.00;;;;;;;20.98;76.79;96874.15;106461;1284;35187;-75
2022/07/05 09:18:13;;;;;;;6.90;6.00;;;;;;;21.00;76.77;96874.70;106433;1284;29076;-76
2022/07/05 09:20:46;;;;;;;6.10;5.50;;;;;;;21.04;76.87;96870.10;106484;1284;29472;-76
2022/07/05 09:23:22;;;;;;;6.30;5.60;;;;;;;21.05;76.78;96874.43;106554;1284;34777;-76
2022/07/05 09:26:04;;;;;;;6.10;5.50;;;;;;;21.03;76.45;96876.46;106442;1284;32130;-76
2022/07/05 09:28:36;;;;;;;7.90;6.30;;;;;;;21.08;76.65;96878.45;106569;1284;35871;-75
2022/07/05 09:31:07;;;;;;;8.50;6.10;;;;;;;21.10;76.14;96881.13;106530;1283;36906;-75
2022/07/05 09:33:51;;;;;;;6.60;6.00;;;;;;;21.04;75.90;96876.19;106597;1284;27102;-75
2022/07/05 09:36:22;;;;;;;8.20;6.70;;;;;;;20.84;75.45;96871.56;106647;1282;28363;-75
2022/07/05 09:38:54;;;;;;;7.20;6.10;;;;;;;20.75;76.05;96870.38;106586;1284;31687;-75
2022/07/05 09:41:27;;;;;;;7.30;5.70;;;;;;;20.84;76.54;96870.64;106413;1284;32982;-75
2022/07/05 09:43:58;;;;;;;7.20;5.90;;;;;;;20.93;76.47;96871.52;106502;1284;37294;-75
2022/07/05 09:46:34;;;;;;;6.70;5.80;;;;;;;20.94;76.08;96871.79;106409;1284;31105;-75
2022/07/05 09:49:05;;;;;;;8.30;6.40;;;;;;;20.95;76.48;96869.34;106431;1284;32796;-75
2022/07/05 09:51:50;;;;;;;7.70;5.70;;;;;;;20.98;76.76;96872.31;106449;1284;39382;-75
2022/07/05 09:54:22;;;;;;;6.90;6.00;;;;;;;20.86;75.79;96871.40;106478;1284;31297;-75
2022/07/05 09:56:56;;;;;;;8.90;5.90;;;;;;;20.78;75.93;96865.52;106409;1284;29863;-75
2022/07/05 09:59:28;;;;;;;6.00;5.40;;;;;;;20.72;76.00;96869.14;106478;1284;34673;-75
2022/07/05 10:02:00;;;;;;;5.90;5.30;;;;;;;20.76;76.45;96865.07;106306;1284;29649;-75
2022/07/05 10:04:32;;;;;;;6.10;5.50;;;;;;;20.85;76.94;96862.04;106410;1284;28413;-75
2022/07/05 10:07:05;;;;;;;5.90;5.30;;;;;;;20.90;77.12;96857.71;106602;1282;26651;-75
2022/07/05 10:09:39;;;;;;;7.00;6.30;;;;;;;20.84;76.71;96855.64;106573;1281;31387;-75
2022/07/05 10:12:12;;;;;;;6.20;5.10;;;;;;;20.78;76.79;96855.81;106691;1284;30112;-75
2022/07/05 10:26:42;;;;;;;5.90;5.10;;;;;;;21.47;75.62;96861.11;104114;1309;558174;-72
2022/07/05 10:29:15;;;;;;;5.80;4.60;;;;;;;21.55;75.24;96864.84;106261;1281;583618;-72
2022/07/05 10:31:48;;;;;;;6.50;5.20;;;;;;;21.53;75.19;96868.93;106806;1280;29089;-72
2022/07/05 10:34:20;;;;;;;6.20;5.20;;;;;;;21.52;75.06;96862.73;106874;1280;31922;-73
2022/07/05 10:36:52;;;;;;;6.50;5.60;;;;;;;21.44;74.20;96853.89;106857;1280;35230;-75
2022/07/05 10:39:25;;;;;;;6.80;6.10;;;;;;;21.44;75.27;96849.95;107012;1280;33540;-74
2022/07/05 10:41:58;;;;;;;5.50;5.00;;;;;;;21.44;75.63;96847.26;106905;1280;41552;-72
2022/07/05 10:44:38;;;;;;;5.80;4.90;;;;;;;21.43;75.88;96847.91;107210;1273;32230;-74
2022/07/05 10:47:12;;;;;;;;;;;;;;;21.36;75.55;96851.42;107369;1274;28366;-74
2022/07/05 10:49:45;;;;;;;6.00;5.00;;;;;;;21.27;76.00;96857.36;107420;1271;30472;-74
2022/07/05 10:52:26;;;;;;;4.90;4.50;;;;;;;21.26;75.67;96857.20;107429;1274;33565;-74
2022/07/05 10:55:38;;;;;;;6.00;5.50;;;;;;;21.13;74.84;96856.52;107420;1272;28203;-74
2022/07/05 10:58:39;;;;;;;9.30;6.10;;;;;;;20.94;74.86;96859.62;107335;1273;31291;-74
2022/07/05 11:01:45;;;;;;;7.80;5.50;;;;;;;20.76;75.55;96862.02;107368;1273;30840;-74
2022/07/05 11:04:36;;;;;;;5.60;5.00;;;;;;;20.59;75.64;96864.70;107301;1273;34359;-74
2022/07/05 11:07:08;;;;;;;6.60;5.30;;;;;;;20.51;76.43;96864.59;107265;1273;33120;-74
2022/07/05 11:10:04;;;;;;;5.50;5.00;;;;;;;20.55;76.90;96865.25;107300;1273;37296;-73
2022/07/05 11:12:41;;;;;;;6.90;5.90;;;;;;;20.65;77.05;96859.25;107319;1273;26710;-74
2022/07/05 11:15:16;;;;;;;7.60;6.30;;;;;;;20.71;76.49;96855.53;107363;1273;27821;-74
2022/07/05 11:17:50;;;;;;;7.20;6.20;;;;;;;20.79;76.66;96858.05;107330;1274;31237;-73
2022/07/05 11:20:30;;;;;;;6.00;5.40;;;;;;;20.85;76.74;96856.27;107579;1274;31296;-74
2022/07/05 11:23:14;;;;;;;5.20;4.70;;;;;;;20.91;76.68;96852.45;107395;1273;39397;-73
2022/07/05 11:25:50;;;;;;;6.20;4.70;;;;;;;20.93;76.71;96850.20;107478;1273;31491;-73
2022/07/05 11:28:24;;;;;;;7.50;5.70;;;;;;;20.97;77.09;96846.04;107396;1273;28497;-74
2022/07/05 11:31:01;;;;;;;6.70;5.70;;;;;;;21.03;77.16;96844.74;107308;1273;30351;-74
2022/07/05 11:33:43;;;;;;;6.00;5.40;;;;;;;21.03;76.89;96843.80;107370;1273;34247;-72
2022/07/05 11:36:27;;;;;;;7.70;5.90;;;;;;;20.99;77.18;96842.69;107396;1273;39394;-72
2022/07/05 11:39:15;;;;;;;6.20;5.30;;;;;;;21.06;77.58;96835.25;107399;1273;32308;-73
2022/07/05 11:41:48;;;;;;;5.40;4.70;;;;;;;21.12;77.58;96826.03;107470;1273;28538;-73
2022/07/05 11:44:20;;;;;;;5.80;5.20;;;;;;;21.16;77.72;96822.48;107486;1273;31481;-74
2022/07/05 11:46:52;;;;;;;8.20;6.10;;;;;;;21.16;77.54;96821.69;107226;1273;35452;-74
2022/07/05 11:49:26;;;;;;;8.20;5.90;;;;;;;21.15;77.34;96823.58;107434;1273;28094;-74
2022/07/05 11:52:02;;;;;;;6.90;6.10;;;;;;;21.13;77.28;96822.16;107379;1273;31947;-74
2022/07/05 11:54:35;;;;;;;7.20;6.50;;;;;;;21.17;77.98;96812.48;107412;1272;32216;-74
2022/07/05 11:57:11;;;;;;;7.70;6.10;;;;;;;21.20;78.04;96811.56;107370;1273;30807;-73
2022/07/05 11:59:43;;;;;;;6.80;5.30;;;;;;;21.22;77.80;96813.77;107388;1271;32877;-74
2022/07/05 12:02:15;;;;;;;5.50;4.90;;;;;;;21.23;77.53;96817.74;107329;1273;30999;-74
2022/07/05 12:04:54;;;;;;;5.20;4.70;;;;;;;21.21;76.77;96816.06;107428;1273;29233;-74